Time;durP1;ratioP1;P1;durP2;ratioP2;P2;SDS_P1;SDS_P2;PMS_P1;PMS_P2;Temp;Humidity;BMP_temperature;BMP_pressure;BME280_temperature;BME280_humidity;BME280_pressure;Samples;Min_cycle;Max_cycle;Signal;HPM_P1;HPM_P2
2022/09/08 00:00:30;;;;;;;1.85;0.75;;;19.60;97.30;;;;;;6102047;23;20009;-79
2022/09/08 00:03:01;;;;;;;2.22;0.88;;;19.60;97.30;;;;;;6076407;23;20011;-79
2022/09/08 00:05:29;;;;;;;1.98;0.90;;;19.60;97.40;;;;;;6124725;23;20022;-79
2022/09/08 00:07:56;;;;;;;1.88;0.45;;;19.50;97.40;;;;;;6124934;23;20003;-79
2022/09/08 00:10:23;;;;;;;1.73;0.60;;;19.60;97.50;;;;;;6102332;23;20011;-79
2022/09/08 00:12:49;;;;;;;1.98;0.60;;;19.60;97.60;;;;;;6101189;23;20004;-79
2022/09/08 00:15:15;;;;;;;3.50;0.77;;;19.60;97.60;;;;;;6150018;23;20006;-79
2022/09/08 00:17:42;;;;;;;2.25;0.60;;;19.60;97.70;;;;;;6077465;23;20013;-80
2022/09/08 00:20:09;;;;;;;2.83;0.60;;;19.50;97.90;;;;;;6100676;23;20011;-79
2022/09/08 00:22:35;;;;;;;2.75;0.80;;;19.40;98.30;;;;;;6100935;23;20005;-79
2022/09/08 00:25:03;;;;;;;1.88;0.60;;;19.30;98.50;;;;;;6099085;23;20002;-79
2022/09/08 00:27:29;;;;;;;1.55;0.57;;;19.30;98.60;;;;;;6084039;23;20007;-79
2022/09/08 00:29:55;;;;;;;2.15;0.70;;;19.20;98.90;;;;;;6097332;23;20002;-79
2022/09/08 00:32:22;;;;;;;2.78;0.70;;;19.20;99.20;;;;;;6073322;23;20013;-79
2022/09/08 00:34:50;;;;;;;3.78;0.70;;;19.10;99.30;;;;;;6096821;23;20015;-79
2022/09/08 00:37:18;;;;;;;2.92;0.80;;;19.10;99.40;;;;;;6073872;23;20007;-79
2022/09/08 00:39:44;;;;;;;3.60;0.90;;;19.10;99.80;;;;;;6074557;23;20011;-79
2022/09/08 00:42:10;;;;;;;3.42;0.80;;;19.10;99.90;;;;;;6075735;23;20005;-79
2022/09/08 00:44:49;;;;;;;3.15;0.80;;;19.00;99.90;;;;;;6049492;23;20011;-79
2022/09/08 00:47:17;;;;;;;2.05;0.70;;;18.90;99.90;;;;;;6084999;23;19999;-78
2022/09/08 00:49:46;;;;;;;3.67;0.80;;;18.80;99.90;;;;;;6074776;23;20002;-78
2022/09/08 00:52:13;;;;;;;3.78;0.70;;;18.70;99.90;;;;;;6074612;23;20046;-78
2022/09/08 00:54:40;;;;;;;2.13;0.82;;;18.70;99.90;;;;;;6076486;23;20440;-78
2022/09/08 00:57:06;;;;;;;2.10;0.80;;;18.50;99.90;;;;;;6075346;23;20463;-79
2022/09/08 00:59:36;;;;;;;2.40;0.73;;;18.50;99.90;;;;;;6048407;23;20015;-79
2022/09/08 01:02:21;;;;;;;3.70;0.90;;;18.40;99.90;;;;;;6075755;23;20006;-78
2022/09/08 01:05:09;;;;;;;2.30;0.80;;;18.40;99.90;;;;;;6085744;23;20007;-78
2022/09/08 01:13:39;;;;;;;3.00;0.80;;;18.30;99.90;;;;;;6074370;23;20025;-78
2022/09/08 01:16:08;;;;;;;1.55;0.70;;;18.30;99.90;;;;;;6073871;23;20006;-78
2022/09/08 01:18:36;;;;;;;2.75;1.13;;;18.30;99.90;;;;;;6073205;23;20029;-79
2022/09/08 01:21:29;;;;;;;4.55;1.33;;;18.30;99.90;;;;;;6097835;23;20018;-78
2022/09/08 01:24:18;;;;;;;2.92;1.40;;;18.30;99.90;;;;;;6059337;23;20002;-79
2022/09/08 01:26:49;;;;;;;3.13;1.20;;;18.20;99.90;;;;;;6115462;23;20010;-78
2022/09/08 01:29:18;;;;;;;2.83;1.20;;;18.20;99.90;;;;;;6113780;23;20489;-78
2022/09/08 01:31:46;;;;;;;4.00;1.77;;;18.20;99.90;;;;;;6104615;23;20458;-78
2022/09/08 01:34:13;;;;;;;3.35;1.25;;;18.20;99.90;;;;;;6078851;23;20316;-78
2022/09/08 01:36:39;;;;;;;8.68;2.67;;;18.20;99.90;;;;;;6104122;23;20342;-78
2022/09/08 01:39:05;;;;;;;6.10;2.60;;;18.20;99.90;;;;;;6104354;23;20425;-79
2022/09/08 01:41:32;;;;;;;3.63;1.67;;;18.20;99.90;;;;;;6151341;23;20010;-79
2022/09/08 01:43:58;;;;;;;3.10;1.58;;;18.10;99.90;;;;;;6103440;23;20012;-79
2022/09/08 01:46:24;;;;;;;3.50;1.58;;;18.00;99.90;;;;;;6102142;23;20006;-79
2022/09/08 01:48:51;;;;;;;4.45;1.85;;;18.00;99.90;;;;;;6102730;23;20003;-79
2022/09/08 01:51:17;;;;;;;3.90;1.75;;;18.00;99.90;;;;;;6103086;23;20028;-79
2022/09/08 01:53:43;;;;;;;4.03;2.25;;;18.00;99.90;;;;;;6101540;23;20463;-79
2022/09/08 01:56:09;;;;;;;2.75;1.80;;;18.00;99.90;;;;;;6076402;23;20010;-79
2022/09/08 01:58:36;;;;;;;3.78;1.50;;;18.00;99.90;;;;;;6102966;23;20588;-78
2022/09/08 02:01:02;;;;;;;2.42;1.08;;;18.00;99.90;;;;;;6124335;23;20017;-79
2022/09/08 02:03:29;;;;;;;3.45;1.33;;;18.00;99.90;;;;;;6125317;23;20013;-79
2022/09/08 02:06:00;;;;;;;2.45;1.35;;;18.00;99.90;;;;;;6150901;23;20010;-80
2022/09/08 02:08:26;;;;;;;5.68;1.30;;;18.00;99.90;;;;;;6159231;23;20007;-79
2022/09/08 02:10:56;;;;;;;11.75;1.50;;;18.00;99.90;;;;;;6102384;23;20009;-79
2022/09/08 02:13:24;;;;;;;5.38;1.27;;;17.90;99.90;;;;;;6101246;23;20012;-79
2022/09/08 02:15:56;;;;;;;1.77;0.70;;;17.80;99.90;;;;;;6149486;23;20066;-79
2022/09/08 02:18:22;;;;;;;2.95;0.88;;;17.80;99.90;;;;;;6125809;23;20016;-79
2022/09/08 02:20:49;;;;;;;2.45;0.75;;;17.80;99.90;;;;;;6102632;23;20347;-79
2022/09/08 02:23:15;;;;;;;3.35;1.10;;;17.70;99.90;;;;;;6149753;23;20006;-78
2022/09/08 02:25:41;;;;;;;3.05;0.88;;;17.60;99.90;;;;;;6149328;23;20029;-79
2022/09/08 02:28:07;;;;;;;3.35;0.88;;;17.50;99.90;;;;;;6100208;23;19998;-78
2022/09/08 02:30:35;;;;;;;4.22;0.90;;;17.50;99.90;;;;;;6076290;23;20010;-79
2022/09/08 02:33:01;;;;;;;2.72;0.80;;;17.40;99.90;;;;;;6123779;23;20007;-79
2022/09/08 02:35:28;;;;;;;2.50;0.98;;;17.40;99.90;;;;;;6125595;23;20006;-79
2022/09/08 02:37:54;;;;;;;2.95;0.68;;;17.30;99.90;;;;;;6125335;23;20014;-78
2022/09/08 02:40:20;;;;;;;3.28;0.90;;;17.30;99.90;;;;;;6100871;23;20014;-78
2022/09/08 02:42:47;;;;;;;5.03;1.15;;;17.30;99.90;;;;;;6149535;23;20002;-79
2022/09/08 02:45:14;;;;;;;2.85;0.90;;;17.20;99.90;;;;;;6100772;23;20004;-79
2022/09/08 02:47:40;;;;;;;3.88;0.90;;;17.20;99.90;;;;;;6123776;23;20006;-79
2022/09/08 02:50:07;;;;;;;2.08;0.60;;;17.20;99.90;;;;;;6102197;23;20098;-80
2022/09/08 02:52:33;;;;;;;2.50;0.70;;;17.20;99.90;;;;;;6147537;23;20006;-79
2022/09/08 02:54:59;;;;;;;3.05;0.60;;;17.20;99.90;;;;;;6078240;23;20010;-79
2022/09/08 02:57:26;;;;;;;2.03;0.73;;;17.10;99.90;;;;;;6102876;23;20006;-79
2022/09/08 02:59:53;;;;;;;2.92;1.30;;;17.10;99.90;;;;;;6125396;23;20006;-80
2022/09/08 03:02:19;;;;;;;2.38;0.73;;;17.10;99.90;;;;;;6104178;23;20007;-80
2022/09/08 03:04:45;;;;;;;2.88;0.85;;;17.10;99.90;;;;;;6078471;23;20002;-80
2022/09/08 03:07:12;;;;;;;2.55;0.75;;;17.10;99.90;;;;;;6126692;23;20003;-80
2022/09/08 03:09:38;;;;;;;3.53;0.77;;;17.10;99.90;;;;;;6100912;23;20334;-79
2022/09/08 03:12:05;;;;;;;2.78;1.00;;;17.10;99.90;;;;;;6125029;23;20029;-80
2022/09/08 03:14:31;;;;;;;1.88;0.90;;;17.10;99.90;;;;;;6100765;23;20009;-80
2022/09/08 03:16:57;;;;;;;3.88;0.88;;;17.10;99.90;;;;;;6125095;23;20005;-79
2022/09/08 03:19:23;;;;;;;5.03;1.60;;;17.10;99.90;;;;;;6100363;23;20002;-79
2022/09/08 03:21:50;;;;;;;3.97;1.35;;;17.10;99.90;;;;;;6099845;23;20018;-79
2022/09/08 03:24:16;;;;;;;3.45;1.30;;;17.10;99.90;;;;;;6099755;23;20012;-79
2022/09/08 03:26:42;;;;;;;3.15;1.20;;;17.10;99.90;;;;;;6149349;23;20017;-79
2022/09/08 03:29:09;;;;;;;5.07;1.27;;;17.10;99.90;;;;;;6075400;23;20409;-79
2022/09/08 03:31:36;;;;;;;4.05;1.45;;;17.10;99.90;;;;;;6124798;23;20007;-79
2022/09/08 03:34:02;;;;;;;5.63;1.40;;;17.10;99.90;;;;;;6124577;23;20010;-80
2022/09/08 03:36:29;;;;;;;3.78;1.45;;;17.10;99.90;;;;;;6075800;23;20020;-79
2022/09/08 03:38:55;;;;;;;4.38;1.25;;;17.20;99.90;;;;;;6124246;23;20010;-79
2022/09/08 03:41:22;;;;;;;4.90;1.20;;;17.20;99.90;;;;;;6100192;23;20014;-80
2022/09/08 03:43:50;;;;;;;4.95;1.40;;;17.20;99.90;;;;;;6149307;23;20006;-80
2022/09/08 03:46:17;;;;;;;4.78;1.33;;;17.20;99.90;;;;;;6149513;23;20006;-80
2022/09/08 03:48:44;;;;;;;3.53;1.33;;;17.20;99.90;;;;;;6101821;23;20334;-80
2022/09/08 03:51:22;;;;;;;3.67;1.05;;;17.20;99.90;;;;;;6126457;23;20461;-80
2022/09/08 03:53:49;;;;;;;3.13;1.27;;;17.30;99.90;;;;;;6110582;23;20009;-80
2022/09/08 03:56:15;;;;;;;3.38;0.93;;;17.30;99.90;;;;;;6124772;23;20006;-80
2022/09/08 03:58:43;;;;;;;4.65;1.08;;;17.40;99.90;;;;;;6101557;23;20002;-80
2022/09/08 04:01:17;;;;;;;3.53;1.00;;;17.40;99.90;;;;;;6101510;23;20013;-79
2022/09/08 04:03:44;;;;;;;5.25;1.33;;;17.40;99.90;;;;;;6099840;23;20006;-79
2022/09/08 04:06:11;;;;;;;2.67;0.95;;;17.40;99.90;;;;;;6101093;23;20013;-79
2022/09/08 04:08:37;;;;;;;2.75;0.98;;;17.40;99.90;;;;;;6148603;23;20015;-79
2022/09/08 04:11:05;;;;;;;2.85;1.02;;;17.50;99.90;;;;;;6099506;23;20341;-79
2022/09/08 04:13:32;;;;;;;2.22;0.77;;;17.50;99.90;;;;;;6123201;23;20010;-79
2022/09/08 04:15:58;;;;;;;2.72;1.17;;;17.50;99.90;;;;;;6124903;23;20013;-80
2022/09/08 04:18:24;;;;;;;5.15;1.10;;;17.50;99.90;;;;;;6102075;23;20450;-81
2022/09/08 04:20:59;;;;;;;3.47;1.00;;;17.50;99.90;;;;;;6152709;23;20021;-81
2022/09/08 04:23:26;;;;;;;2.85;0.80;;;17.40;99.90;;;;;;6079407;23;20002;-80
2022/09/08 04:26:01;;;;;;;3.47;1.05;;;17.40;99.90;;;;;;6104979;23;20356;-81
2022/09/08 04:28:27;;;;;;;4.45;1.10;;;17.40;99.90;;;;;;6114194;23;20415;-81
2022/09/08 04:30:53;;;;;;;3.42;0.93;;;17.30;99.90;;;;;;6151786;23;20013;-80
2022/09/08 04:45:21;;;;;;;2.05;0.57;;;17.20;99.90;;;;;;6016610;23;20011;-84
2022/09/08 04:49:02;;;;;;;2.75;1.20;;;17.20;99.90;;;;;;5996136;23;20004;-83
2022/09/08 04:55:02;;;;;;;3.15;1.02;;;17.20;99.90;;;;;;6063777;23;19910;-84
2022/09/08 04:58:42;;;;;;;1.67;0.65;;;17.20;99.90;;;;;;6029332;23;20018;-84
2022/09/08 05:02:03;;;;;;;3.60;1.35;;;17.20;99.90;;;;;;6033585;23;20024;-83
2022/09/08 05:05:05;;;;;;;2.63;1.00;;;17.10;99.90;;;;;;5990609;23;20011;-84
2022/09/08 05:08:09;;;;;;;4.22;1.08;;;17.20;99.90;;;;;;6060232;23;20022;-83
2022/09/08 05:11:11;;;;;;;;;;;;;;;;;;;;;
2022/09/08 05:26:35;;;;;;;3.13;1.40;;;17.10;99.90;;;;;;6046618;23;20481;-83
2022/09/08 05:29:23;;;;;;;4.20;1.00;;;17.10;99.90;;;;;;6040079;23;20030;-83
2022/09/08 05:33:04;;;;;;;4.57;1.20;;;17.10;99.90;;;;;;6048251;23;20008;-83
2022/09/08 05:35:54;;;;;;;4.60;1.58;;;17.00;99.90;;;;;;6000769;23;20016;-84
2022/09/08 05:38:41;;;;;;;3.17;1.90;;;17.00;99.90;;;;;;6032366;23;20333;-80
2022/09/08 05:41:37;;;;;;;5.47;2.80;;;16.90;99.90;;;;;;6036699;23;20038;-81
2022/09/08 05:44:30;;;;;;;3.92;1.77;;;16.80;99.90;;;;;;6009849;23;20003;-82
2022/09/08 05:47:09;;;;;;;2.85;1.80;;;16.80;99.90;;;;;;6042759;23;20014;-81
2022/09/08 05:49:52;;;;;;;3.95;1.85;;;16.70;99.90;;;;;;6009001;23;20018;-82
2022/09/08 05:52:41;;;;;;;3.28;1.90;;;16.70;99.90;;;;;;6035254;23;20019;-83
2022/09/08 05:55:19;;;;;;;3.58;2.47;;;16.70;99.90;;;;;;6010335;23;20015;-82
2022/09/08 05:57:50;;;;;;;4.70;2.45;;;16.60;99.90;;;;;;6033516;23;20027;-83
2022/09/08 06:00:28;;;;;;;4.07;2.75;;;16.60;99.90;;;;;;6033972;23;20004;-83
2022/09/08 06:03:06;;;;;;;4.35;2.90;;;16.60;99.90;;;;;;6033727;23;20007;-84
2022/09/08 06:05:43;;;;;;;6.30;2.63;;;16.60;99.90;;;;;;6034945;23;20012;-84
2022/09/08 06:08:23;;;;;;;3.60;2.88;;;16.50;99.90;;;;;;6009572;23;20004;-84
2022/09/08 06:11:06;;;;;;;4.32;2.88;;;16.50;99.90;;;;;;6045228;23;20007;-83
2022/09/08 06:16:51;;;;;;;4.80;3.40;;;16.60;99.90;;;;;;6064372;23;20355;-84
2022/09/08 06:20:11;;;;;;;5.38;3.00;;;16.60;99.90;;;;;;6021819;23;20461;-83
2022/09/08 06:23:21;;;;;;;5.82;4.40;;;16.60;99.90;;;;;;6042561;23;20008;-83
2022/09/08 06:26:37;;;;;;;5.85;3.40;;;16.60;99.90;;;;;;6023260;23;20010;-84
2022/09/08 06:29:58;;;;;;;3.80;2.70;;;16.60;99.90;;;;;;6018208;23;20014;-84
2022/09/08 06:37:09;;;;;;;5.40;3.95;;;16.60;99.90;;;;;;6072948;23;20033;-85
2022/09/08 06:40:13;;;;;;;6.80;4.55;;;16.60;99.90;;;;;;5990361;23;20008;-85
2022/09/08 06:43:22;;;;;;;6.10;3.85;;;16.70;99.90;;;;;;5984672;23;20011;-84
2022/09/08 06:46:40;;;;;;;8.65;4.45;;;16.70;99.90;;;;;;6044414;23;20010;-85
2022/09/08 06:49:30;;;;;;;5.18;3.85;;;16.70;99.90;;;;;;6042221;23;20011;-84
2022/09/08 06:55:45;;;;;;;10.02;5.07;;;16.80;99.90;;;;;;6035423;23;20015;-84
2022/09/08 06:59:01;;;;;;;5.15;3.25;;;16.80;99.90;;;;;;6043320;23;20436;-85
2022/09/08 07:02:13;;;;;;;5.82;4.22;;;16.80;99.90;;;;;;6053153;23;20072;-84
2022/09/08 07:05:35;;;;;;;8.10;3.75;;;16.80;99.90;;;;;;6042491;23;20007;-85
2022/09/08 07:13:00;;;;;;;5.55;3.65;;;16.80;99.90;;;;;;6042249;23;20012;-84
2022/09/08 07:16:07;;;;;;;5.03;2.92;;;16.70;99.90;;;;;;6042325;23;20359;-84
2022/09/08 07:19:08;;;;;;;7.30;3.88;;;16.80;99.90;;;;;;6019904;23;20008;-83
2022/09/08 07:26:32;;;;;;;5.50;2.72;;;16.80;99.90;;;;;;6027350;23;20007;-83
2022/09/08 07:29:33;;;;;;;2.90;1.73;;;16.80;99.90;;;;;;6042876;23;20011;-84
2022/09/08 07:32:43;;;;;;;3.72;3.25;;;16.90;99.90;;;;;;6018651;23;20007;-84
2022/09/08 07:36:03;;;;;;;4.53;3.20;;;16.90;99.90;;;;;;6016298;23;20011;-84
2022/09/08 07:39:00;;;;;;;4.13;2.75;;;17.00;99.90;;;;;;6013902;23;20016;-84
2022/09/08 07:41:48;;;;;;;5.35;4.30;;;17.00;99.90;;;;;;6014458;23;20012;-83
2022/09/08 07:44:55;;;;;;;4.15;3.30;;;17.00;99.90;;;;;;6013097;23;20026;-83
2022/09/08 07:47:55;;;;;;;5.22;4.50;;;17.00;99.90;;;;;;6013334;23;20007;-82
2022/09/08 07:50:53;;;;;;;6.05;5.10;;;17.00;99.90;;;;;;5992921;23;20011;-82
2022/09/08 07:57:32;;;;;;;5.05;3.50;;;17.00;99.90;;;;;;6017174;23;20026;-83
2022/09/08 08:00:15;;;;;;;4.13;2.90;;;17.00;99.90;;;;;;5984062;23;20016;-83
2022/09/08 08:03:45;;;;;;;4.22;3.03;;;17.10;99.90;;;;;;6016035;23;20030;-84
2022/09/08 08:06:55;;;;;;;5.15;2.30;;;17.10;99.90;;;;;;6012864;23;20345;-83
2022/09/08 08:09:51;;;;;;;4.80;2.63;;;17.20;99.90;;;;;;6015788;23;20027;-83
2022/09/08 08:13:12;;;;;;;4.35;2.83;;;17.20;99.90;;;;;;6017434;23;20760;-84
2022/09/08 08:16:31;;;;;;;3.22;2.08;;;17.30;99.90;;;;;;6016253;23;20007;-83
2022/09/08 08:19:35;;;;;;;4.03;3.28;;;17.30;99.90;;;;;;6015628;23;20004;-83
2022/09/08 08:23:00;;;;;;;2.78;2.58;;;17.40;99.90;;;;;;5972516;23;20007;-82
2022/09/08 08:25:55;;;;;;;5.40;3.03;;;17.40;99.90;;;;;;6016140;23;20034;-82
2022/09/08 08:28:45;;;;;;;6.15;3.72;;;17.40;99.90;;;;;;6027286;23;20012;-83
2022/09/08 08:32:12;;;;;;;4.88;3.70;;;17.60;99.90;;;;;;6028336;23;20011;-81
2022/09/08 08:35:36;;;;;;;4.95;2.97;;;17.70;99.90;;;;;;6022872;23;20011;-82
2022/09/08 08:38:15;;;;;;;5.00;4.32;;;17.90;99.90;;;;;;6038855;23;20015;-82
2022/09/08 08:41:00;;;;;;;5.93;4.30;;;18.10;99.90;;;;;;6038774;23;20007;-82
2022/09/08 08:44:00;;;;;;;4.88;4.18;;;18.20;99.90;;;;;;6038721;23;20439;-83
2022/09/08 08:47:15;;;;;;;5.35;4.68;;;18.20;99.90;;;;;;5995605;23;20011;-83
2022/09/08 08:50:17;;;;;;;6.38;4.50;;;18.30;99.90;;;;;;6037704;23;20007;-83
2022/09/08 08:53:33;;;;;;;6.80;4.90;;;18.40;99.90;;;;;;6038414;23;20019;-82
2022/09/08 08:56:23;;;;;;;6.20;5.00;;;18.60;99.90;;;;;;6009793;23;20000;-83
2022/09/08 08:59:42;;;;;;;6.85;4.75;;;18.90;99.90;;;;;;6015945;23;20463;-83
2022/09/08 09:02:25;;;;;;;6.85;5.45;;;19.00;99.90;;;;;;6038256;23;20012;-83
2022/09/08 09:05:41;;;;;;;5.63;4.10;;;19.00;99.90;;;;;;6038126;23;20014;-83
2022/09/08 09:09:07;;;;;;;7.63;4.82;;;19.00;99.90;;;;;;6029507;23;20022;-82
2022/09/08 09:12:40;;;;;;;7.18;5.85;;;19.10;99.90;;;;;;6037967;23;20011;-82
2022/09/08 09:15:23;;;;;;;8.10;6.47;;;19.20;99.90;;;;;;6017031;23;20348;-83
2022/09/08 09:18:56;;;;;;;7.22;5.70;;;19.30;99.90;;;;;;6049833;23;20049;-82
2022/09/08 09:22:14;;;;;;;7.15;5.32;;;19.40;99.90;;;;;;6040828;23;20022;-83
2022/09/08 09:25:27;;;;;;;6.78;5.00;;;19.40;99.90;;;;;;6014657;23;20399;-83
2022/09/08 09:28:41;;;;;;;8.02;5.30;;;19.40;99.90;;;;;;6039518;23;20010;-83
2022/09/08 09:32:16;;;;;;;8.25;4.70;;;19.70;99.90;;;;;;6017534;23;20015;-83
2022/09/08 09:35:13;;;;;;;6.82;4.00;;;20.20;99.90;;;;;;6019553;23;20016;-82
2022/09/08 09:38:13;;;;;;;4.20;3.78;;;20.40;99.90;;;;;;6048945;23;20416;-82
2022/09/08 09:41:14;;;;;;;5.38;3.95;;;20.40;99.90;;;;;;6017576;23;20007;-83
2022/09/08 09:44:24;;;;;;;4.90;3.67;;;20.40;99.90;;;;;;6038224;23;20008;-84
2022/09/08 09:48:08;;;;;;;5.85;3.50;;;20.30;99.90;;;;;;6040145;23;20012;-84
2022/09/08 09:51:37;;;;;;;5.97;3.13;;;20.20;99.90;;;;;;6020097;23;20107;-84
2022/09/08 09:55:10;;;;;;;4.95;2.70;;;20.10;99.90;;;;;;6027677;23;20018;-84
2022/09/08 09:59:00;;;;;;;7.30;3.22;;;20.10;99.90;;;;;;6003157;23;20027;-84
2022/09/08 10:02:11;;;;;;;;;;;;;;;;;;;;;
2022/09/08 10:06:19;;;;;;;4.75;3.45;;;20.30;99.90;;;;;;6019920;23;20011;-84
2022/09/08 10:09:29;;;;;;;3.45;2.67;;;20.60;99.90;;;;;;6060309;23;20029;-84
2022/09/08 10:13:09;;;;;;;5.43;2.63;;;20.60;99.90;;;;;;6027829;23;20011;-85
2022/09/08 10:16:26;;;;;;;4.43;2.28;;;20.70;99.90;;;;;;6047605;23;20063;-84
2022/09/08 10:24:31;;;;;;;3.45;2.15;;;20.70;99.90;;;;;;6047381;23;20023;-84
2022/09/08 10:28:01;;;;;;;3.10;1.90;;;20.70;99.90;;;;;;6051634;23;20027;-83
2022/09/08 10:31:35;;;;;;;5.15;1.80;;;21.00;99.90;;;;;;6047872;23;20011;-83
2022/09/08 10:35:10;;;;;;;2.92;1.40;;;21.40;99.90;;;;;;6015311;23;20012;-83
2022/09/08 10:38:44;;;;;;;6.28;2.40;;;21.90;99.90;;;;;;6008898;23;20022;-83
2022/09/08 10:41:58;;;;;;;4.28;2.13;;;21.90;99.90;;;;;;6012140;23;20007;-82
2022/09/08 10:45:31;;;;;;;6.95;2.10;;;21.80;99.90;;;;;;6007386;23;20016;-83
2022/09/08 10:48:14;;;;;;;3.22;2.25;;;21.80;99.90;;;;;;6012498;23;20008;-84
2022/09/08 10:50:58;;;;;;;2.95;2.13;;;21.80;99.90;;;;;;6012853;23;20012;-83
2022/09/08 10:54:14;;;;;;;3.30;2.22;;;21.90;99.90;;;;;;5990689;23;20004;-83
2022/09/08 10:56:55;;;;;;;3.38;1.70;;;22.00;99.90;;;;;;6011878;23;20022;-83
2022/09/08 11:00:05;;;;;;;2.40;1.55;;;22.10;99.90;;;;;;6011782;23;20019;-83
2022/09/08 11:03:49;;;;;;;2.88;1.35;;;22.20;99.90;;;;;;6010495;23;20012;-80
2022/09/08 11:06:38;;;;;;;1.88;1.00;;;22.00;99.90;;;;;;6010257;23;20024;-80
2022/09/08 11:09:19;;;;;;;3.35;1.20;;;22.00;99.90;;;;;;6011477;23;20343;-81
2022/09/08 11:12:26;;;;;;;2.63;1.08;;;21.80;99.90;;;;;;6013190;23;20016;-81
2022/09/08 11:15:20;;;;;;;3.30;0.90;;;21.80;99.90;;;;;;6014349;23;20011;-80
2022/09/08 11:18:08;;;;;;;3.88;1.35;;;22.30;99.90;;;;;;6013937;23;20340;-81
2022/09/08 11:21:01;;;;;;;2.70;1.20;;;23.10;99.90;;;;;;6015389;23;20018;-83
2022/09/08 11:24:29;;;;;;;2.72;1.27;;;23.90;99.90;;;;;;6014576;23;20016;-82
2022/09/08 11:27:44;;;;;;;4.68;1.48;;;24.00;99.90;;;;;;5953149;24;20005;-82
2022/09/08 11:30:42;;;;;;;5.68;1.10;;;23.60;99.90;;;;;;5929278;24;20017;-81
2022/09/08 11:33:55;;;;;;;;;;;23.30;99.90;;;;;;5941294;24;20017;-81
2022/09/08 11:37:00;;;;;;;3.10;1.40;;;22.90;99.90;;;;;;5992014;24;19921;-82
2022/09/08 11:40:39;;;;;;;2.17;0.70;;;22.40;99.90;;;;;;5987350;23;20028;-82
2022/09/08 11:44:15;;;;;;;2.17;0.60;;;23.00;99.90;;;;;;5986592;23;20475;-82
2022/09/08 11:47:40;;;;;;;4.30;1.02;;;23.60;99.90;;;;;;5988616;23;20021;-82
2022/09/08 11:55:02;;;;;;;3.40;0.60;;;25.60;99.90;;;;;;5990581;23;20018;-83
2022/09/08 11:57:55;;;;;;;2.85;0.50;;;25.00;99.90;;;;;;5985912;23;20011;-81
2022/09/08 12:01:03;;;;;;;2.33;0.85;;;24.70;99.90;;;;;;6012137;23;20024;-82
2022/09/08 12:04:18;;;;;;;4.93;1.27;;;25.50;99.90;;;;;;5987734;23;20015;-82
2022/09/08 12:07:36;;;;;;;3.08;0.77;;;26.40;99.90;;;;;;5990430;23;20011;-81
2022/09/08 12:11:11;;;;;;;4.82;0.60;;;27.10;99.60;;;;;;5988728;23;20008;-82
2022/09/08 12:18:02;;;;;;;3.88;0.70;;;28.50;96.60;;;;;;6010122;23;20015;-82
2022/09/08 12:21:04;;;;;;;4.38;0.70;;;28.50;94.90;;;;;;5988554;23;20008;-82
2022/09/08 12:24:28;;;;;;;1.25;0.50;;;28.20;94.40;;;;;;6018903;23;20015;-82
2022/09/08 12:27:26;;;;;;;2.55;0.57;;;28.10;94.10;;;;;;6009798;23;20587;-82
2022/09/08 12:30:12;;;;;;;2.10;0.50;;;28.60;92.90;;;;;;6010742;23;20007;-82
2022/09/08 12:33:01;;;;;;;3.80;0.57;;;29.50;91.40;;;;;;6010936;23;20015;-82
2022/09/08 12:36:13;;;;;;;3.40;1.40;;;30.40;91.10;;;;;;6031058;23;20015;-82
2022/09/08 12:39:34;;;;;;;3.25;0.60;;;31.40;90.30;;;;;;6020715;23;20023;-82
2022/09/08 12:42:40;;;;;;;5.40;0.60;;;32.30;86.20;;;;;;6035360;23;20012;-83
2022/09/08 12:45:32;;;;;;;2.25;0.50;;;32.50;80.80;;;;;;6011751;23;20007;-82
2022/09/08 12:48:55;;;;;;;2.95;0.40;;;31.60;79.90;;;;;;6011509;23;20011;-82
2022/09/08 12:51:40;;;;;;;2.13;0.40;;;30.10;82.60;;;;;;5986515;23;20018;-82
2022/09/08 12:54:33;;;;;;;;;;;;;;;;;;;;;
2022/09/08 12:57:58;;;;;;;3.15;0.60;;;28.30;83.40;;;;;;6035272;23;20105;-81
2022/09/08 13:01:08;;;;;;;2.20;0.40;;;28.10;84.80;;;;;;5993676;23;20356;-82
2022/09/08 13:04:01;;;;;;;6.47;3.10;;;29.30;83.60;;;;;;6010686;23;20468;-81
2022/09/08 13:06:37;;;;;;;;;;;30.50;80.30;;;;;;6011931;23;20012;-82
2022/09/08 13:09:15;;;;;;;2.10;0.60;;;30.70;80.30;;;;;;6010643;23;19911;-81
2022/09/08 13:12:11;;;;;;;8.05;3.90;;;30.60;81.60;;;;;;6004947;23;20022;-81
2022/09/08 13:15:28;;;;;;;3.50;0.88;;;31.40;78.40;;;;;;6006556;23;20007;-81
2022/09/08 13:18:21;;;;;;;9.45;4.88;;;31.60;77.00;;;;;;5986880;23;20014;-82
2022/09/08 13:20:59;;;;;;;3.78;1.10;;;32.30;73.60;;;;;;6004820;23;20003;-81
2022/09/08 13:24:00;;;;;;;2.00;0.55;;;31.80;71.10;;;;;;6027987;23;20388;-82
2022/09/08 13:27:03;;;;;;;2.92;0.60;;;31.90;71.40;;;;;;6005032;23;20011;-83
2022/09/08 13:30:06;;;;;;;2.58;0.60;;;32.40;70.80;;;;;;6005502;23;20040;-84
2022/09/08 13:37:38;;;;;;;3.25;0.50;;;30.10;73.20;;;;;;6022111;23;20331;-83
2022/09/08 13:40:43;;;;;;;2.90;0.50;;;29.90;72.50;;;;;;6041779;23;20375;-82
2022/09/08 13:44:02;;;;;;;3.08;0.60;;;31.00;73.00;;;;;;6040705;23;20011;-83
2022/09/08 13:47:47;;;;;;;1.85;0.47;;;32.30;69.70;;;;;;6039421;23;20018;-83
2022/09/08 13:50:33;;;;;;;2.25;0.43;;;33.70;66.80;;;;;;6016854;23;20341;-82
2022/09/08 13:53:17;;;;;;;3.65;0.40;;;33.60;65.30;;;;;;6018654;23;20007;-83
2022/09/08 13:56:15;;;;;;;2.42;0.40;;;32.80;66.90;;;;;;6013293;23;20016;-83
2022/09/08 13:59:20;;;;;;;4.78;2.85;;;33.20;65.00;;;;;;6027405;23;20359;-82
2022/09/08 14:01:56;;;;;;;1.92;0.80;;;34.20;62.50;;;;;;6018147;23;20007;-83
2022/09/08 14:04:46;;;;;;;4.15;2.50;;;34.00;61.30;;;;;;6043149;23;20483;-82
2022/09/08 14:07:37;;;;;;;2.05;0.60;;;33.80;60.90;;;;;;6042017;23;20015;-81
2022/09/08 14:14:18;;;;;;;1.58;0.40;;;34.70;59.10;;;;;;6041388;23;20039;-84
2022/09/08 14:17:36;;;;;;;2.30;0.40;;;33.50;59.10;;;;;;6041923;23;20015;-83
2022/09/08 14:20:48;;;;;;;1.83;0.60;;;31.80;61.30;;;;;;6043157;23;20014;-83
2022/09/08 14:23:51;;;;;;;2.05;0.40;;;30.20;64.70;;;;;;6023388;23;20455;-83
2022/09/08 14:26:54;;;;;;;4.00;0.30;;;28.80;66.30;;;;;;6042618;23;20008;-83
2022/09/08 14:33:44;;;;;;;3.42;0.60;;;27.20;69.30;;;;;;6042923;23;20007;-82
2022/09/08 14:37:51;;;;;;;1.65;0.40;;;26.50;70.90;;;;;;5972453;23;20058;-83
2022/09/08 14:40:47;;;;;;;2.53;0.40;;;26.00;72.40;;;;;;6052269;23;20010;-84
2022/09/08 14:44:09;;;;;;;2.83;0.40;;;26.00;73.00;;;;;;6042628;23;20355;-82
2022/09/08 14:47:08;;;;;;;3.05;0.40;;;25.90;73.10;;;;;;6045320;23;20471;-82
2022/09/08 14:50:21;;;;;;;2.20;0.40;;;25.70;73.40;;;;;;6021983;23;20014;-83
2022/09/08 14:54:03;;;;;;;1.67;0.38;;;25.50;74.00;;;;;;6046350;23;20015;-81
2022/09/08 14:56:56;;;;;;;2.63;0.30;;;25.10;74.80;;;;;;6010493;23;20322;-82
2022/09/08 15:00:50;;;;;;;0.97;0.30;;;24.90;75.50;;;;;;5920850;24;20022;-82
2022/09/08 15:04:45;;;;;;;1.52;0.40;;;24.80;75.90;;;;;;5980128;23;20019;-81
2022/09/08 15:27:47;;;;;;;2.90;0.40;;;24.60;76.90;;;;;;6128242;23;20331;-82
2022/09/08 15:31:40;;;;;;;;;;;;;;;;;;;;;
2022/09/08 15:35:26;;;;;;;1.60;0.43;;;24.20;76.90;;;;;;6118114;23;20013;-82
2022/09/08 15:39:06;;;;;;;;;;;;;;;;;;;;;
2022/09/08 15:42:36;;;;;;;2.20;0.40;;;23.80;77.20;;;;;;6069876;23;20025;-81
2022/09/08 15:46:10;;;;;;;2.35;0.45;;;23.50;78.00;;;;;;6064452;23;20021;-83
2022/09/08 15:48:51;;;;;;;2.47;0.60;;;23.30;78.70;;;;;;6070858;23;20018;-80
2022/09/08 15:51:49;;;;;;;1.92;0.40;;;23.10;79.00;;;;;;6066037;23;20010;-83
2022/09/08 15:54:54;;;;;;;2.75;0.57;;;22.90;79.50;;;;;;6047640;23;20030;-82
2022/09/08 15:57:48;;;;;;;2.55;0.40;;;22.80;80.00;;;;;;6084916;23;19999;-80
2022/09/08 16:00:46;;;;;;;2.92;0.40;;;22.70;80.00;;;;;;6101132;23;20002;-81
2022/09/08 16:03:54;;;;;;;1.35;0.30;;;22.70;80.20;;;;;;6093701;23;20022;-82
2022/09/08 16:10:21;;;;;;;2.97;0.60;;;22.70;80.90;;;;;;6042602;23;20002;-82
2022/09/08 16:13:21;;;;;;;2.00;0.47;;;22.70;81.30;;;;;;6042763;23;20068;-82
2022/09/08 16:16:52;;;;;;;4.15;0.82;;;22.70;81.80;;;;;;6085277;23;20021;-81
2022/09/08 16:20:10;;;;;;;4.10;0.80;;;22.70;82.00;;;;;;6039389;23;20007;-81
2022/09/08 16:26:43;;;;;;;2.97;0.40;;;22.80;82.60;;;;;;6112567;23;20026;-81
2022/09/08 16:38:43;;;;;;;6.13;1.10;;;22.30;82.70;;;;;;6091142;23;20117;-81
2022/09/08 16:42:35;;;;;;;2.72;0.93;;;22.10;83.20;;;;;;6107504;23;20025;-79
2022/09/08 17:03:07;;;;;;;1.67;0.50;;;21.50;85.80;;;;;;6045107;23;20034;-80
2022/09/08 17:06:54;;;;;;;4.22;0.63;;;21.30;86.70;;;;;;6071122;23;20002;-80
2022/09/08 17:09:48;;;;;;;6.70;0.82;;;21.10;87.40;;;;;;6090608;23;20435;-82
2022/09/08 17:12:33;;;;;;;2.65;0.73;;;21.00;88.30;;;;;;6055731;23;20011;-80
2022/09/08 17:15:09;;;;;;;4.37;0.50;;;20.90;89.10;;;;;;6080054;23;20021;-80
2022/09/08 17:18:11;;;;;;;1.85;0.57;;;20.90;88.70;;;;;;6054305;23;20014;-81
2022/09/08 17:21:20;;;;;;;1.17;0.30;;;20.90;88.80;;;;;;6100720;23;20015;-82
2022/09/08 17:24:53;;;;;;;3.17;0.90;;;20.80;89.30;;;;;;6076052;23;20003;-80
2022/09/08 17:27:58;;;;;;;3.78;0.88;;;20.70;90.00;;;;;;6076636;23;20022;-82